Time;durP1;ratioP1;P1;durP2;ratioP2;P2;SDS_P1;SDS_P2;PMS_P1;PMS_P2;Temp;Humidity;BMP_temperature;BMP_pressure;BME280_temperature;BME280_humidity;BME280_pressure;Samples;Min_cycle;Max_cycle;Signal;HPM_P1;HPM_P2
2021/12/23 00:01:48;;;;;;;0.10;0.10;;;;;;;;;;4901297;29;20039;-92
2021/12/23 00:04:14;;;;;;;0.63;0.50;;;;;;;;;;4900002;29;20604;-92
2021/12/23 00:06:44;;;;;;;0.10;0.10;;;;;;;;;;4900045;29;20212;-91
2021/12/23 00:09:10;;;;;;;0.10;0.10;;;;;;;;;;4900625;29;20152;-92
2021/12/23 00:11:36;;;;;;;0.10;0.10;;;;;;;;;;4899814;29;20055;-91
2021/12/23 00:14:08;;;;;;;0.20;0.20;;;;;;;;;;4900185;29;20056;-93
2021/12/23 00:16:43;;;;;;;0.10;0.10;;;;;;;;;;4900947;29;20040;-92
2021/12/23 00:24:32;;;;;;;0.10;0.10;;;;;;;;;;4917833;29;20070;-91
2021/12/23 00:26:58;;;;;;;0.10;0.10;;;;;;;;;;4900288;29;20150;-92
2021/12/23 00:29:24;;;;;;;0.10;0.10;;;;;;;;;;4915233;29;20036;-92
2021/12/23 00:31:50;;;;;;;0.10;0.10;;;;;;;;;;4915205;29;20051;-92
2021/12/23 00:34:16;;;;;;;0.05;0.05;;;;;;;;;;4899382;29;20048;-91
2021/12/23 00:36:44;;;;;;;0.10;0.10;;;;;;;;;;4915217;29;20050;-91
2021/12/23 00:39:12;;;;;;;0.10;0.10;;;;;;;;;;4915641;29;20054;-92
2021/12/23 00:41:38;;;;;;;0.10;0.10;;;;;;;;;;4899632;29;20043;-91
2021/12/23 00:44:04;;;;;;;0.30;0.30;;;;;;;;;;4915197;29;20036;-92
2021/12/23 00:46:30;;;;;;;0.10;0.10;;;;;;;;;;4899625;29;20079;-92
2021/12/23 00:48:56;;;;;;;0.10;0.10;;;;;;;;;;4915236;29;20040;-93
2021/12/23 00:51:22;;;;;;;0.10;0.10;;;;;;;;;;4901634;29;20044;-92
2021/12/23 00:53:51;;;;;;;0.10;0.10;;;;;;;;;;4903090;29;20063;-92
2021/12/23 00:56:17;;;;;;;3.30;0.30;;;;;;;;;;4903207;29;20504;-93
2021/12/23 00:58:43;;;;;;;0.10;0.10;;;;;;;;;;4918888;29;20051;-92
2021/12/23 01:01:09;;;;;;;0.10;0.10;;;;;;;;;;4902765;29;20044;-91
2021/12/23 01:03:35;;;;;;;0.30;0.30;;;;;;;;;;4902482;29;20044;-90
2021/12/23 01:06:01;;;;;;;0.38;0.38;;;;;;;;;;4902612;29;20036;-91
2021/12/23 01:08:27;;;;;;;0.57;0.57;;;;;;;;;;4902849;29;20056;-91
2021/12/23 01:10:56;;;;;;;0.10;0.10;;;;;;;;;;4902521;29;20059;-91
2021/12/23 01:13:26;;;;;;;0.10;0.10;;;;;;;;;;4902738;29;20040;-91
2021/12/23 01:16:06;;;;;;;0.10;0.10;;;;;;;;;;4903044;29;20135;-92
2021/12/23 01:18:37;;;;;;;0.08;0.08;;;;;;;;;;4904401;29;20094;-92
2021/12/23 01:21:04;;;;;;;0.10;0.10;;;;;;;;;;4919214;29;20093;-91
2021/12/23 01:23:31;;;;;;;0.10;0.10;;;;;;;;;;4918086;29;20451;-91
2021/12/23 01:25:57;;;;;;;0.55;0.52;;;;;;;;;;4918289;29;20055;-91
2021/12/23 01:28:25;;;;;;;0.10;0.10;;;;;;;;;;4918662;29;20051;-92
2021/12/23 01:30:51;;;;;;;0.10;0.10;;;;;;;;;;4918233;29;20074;-91
2021/12/23 01:33:17;;;;;;;0.00;0.00;;;;;;;;;;4902634;29;20091;-92
2021/12/23 01:35:45;;;;;;;0.10;0.10;;;;;;;;;;4902597;29;20089;-91
2021/12/23 01:38:11;;;;;;;0.10;0.10;;;;;;;;;;4917989;29;20044;-92
2021/12/23 01:40:37;;;;;;;0.10;0.10;;;;;;;;;;4902704;29;20055;-92
2021/12/23 01:43:04;;;;;;;0.10;0.10;;;;;;;;;;4902190;29;20040;-92
2021/12/23 01:45:31;;;;;;;0.10;0.10;;;;;;;;;;4902256;29;20467;-92
2021/12/23 01:47:57;;;;;;;0.13;0.13;;;;;;;;;;4918618;29;20459;-93
2021/12/23 01:50:26;;;;;;;0.10;0.10;;;;;;;;;;4917994;29;20047;-91
2021/12/23 01:52:52;;;;;;;0.10;0.10;;;;;;;;;;4902350;29;20556;-91
2021/12/23 01:55:19;;;;;;;0.10;0.10;;;;;;;;;;4901705;29;20048;-92
2021/12/23 01:57:45;;;;;;;0.90;0.90;;;;;;;;;;4917193;29;20048;-91
2021/12/23 02:00:13;;;;;;;0.10;0.10;;;;;;;;;;4917336;29;20044;-91
2021/12/23 02:02:40;;;;;;;0.10;0.10;;;;;;;;;;4917250;29;20404;-92
2021/12/23 02:05:06;;;;;;;0.10;0.10;;;;;;;;;;4901931;29;20131;-91
2021/12/23 02:07:32;;;;;;;0.10;0.10;;;;;;;;;;4901498;29;20552;-91
2021/12/23 02:09:58;;;;;;;0.10;0.10;;;;;;;;;;4901792;29;20127;-91
2021/12/23 02:12:24;;;;;;;0.28;0.28;;;;;;;;;;4901389;29;20040;-92
2021/12/23 02:14:50;;;;;;;0.10;0.10;;;;;;;;;;4901865;29;20047;-92
2021/12/23 02:17:16;;;;;;;0.10;0.10;;;;;;;;;;4901951;29;20044;-91
2021/12/23 02:19:42;;;;;;;0.10;0.10;;;;;;;;;;4917297;29;20131;-91
2021/12/23 02:22:08;;;;;;;0.40;0.40;;;;;;;;;;4900962;29;20068;-90
2021/12/23 02:24:34;;;;;;;0.15;0.15;;;;;;;;;;4901407;29;20040;-90
2021/12/23 02:27:00;;;;;;;0.10;0.10;;;;;;;;;;4901015;29;20103;-89
2021/12/23 02:29:26;;;;;;;0.10;0.10;;;;;;;;;;4900845;29;20352;-90
2021/12/23 02:31:53;;;;;;;0.10;0.10;;;;;;;;;;4900971;29;20055;-90
2021/12/23 02:34:19;;;;;;;0.10;0.10;;;;;;;;;;4916809;29;20135;-90
2021/12/23 02:36:55;;;;;;;0.10;0.10;;;;;;;;;;4916819;29;20048;-90
2021/12/23 02:39:21;;;;;;;0.15;0.13;;;;;;;;;;4916765;29;20063;-90
2021/12/23 02:41:47;;;;;;;0.10;0.10;;;;;;;;;;4900755;29;20500;-91
2021/12/23 02:44:13;;;;;;;0.30;0.30;;;;;;;;;;4901387;29;20051;-93
2021/12/23 02:46:39;;;;;;;0.10;0.10;;;;;;;;;;4901237;29;20044;-92
2021/12/23 02:49:05;;;;;;;0.10;0.10;;;;;;;;;;4916944;29;20051;-91
2021/12/23 02:51:31;;;;;;;0.43;0.22;;;;;;;;;;4901114;29;20052;-90
2021/12/23 02:53:57;;;;;;;0.10;0.10;;;;;;;;;;4916640;29;20412;-92
2021/12/23 02:56:23;;;;;;;0.20;0.20;;;;;;;;;;4900977;29;20047;-92
2021/12/23 02:58:49;;;;;;;0.10;0.10;;;;;;;;;;4901377;29;20465;-92
2021/12/23 03:01:16;;;;;;;0.10;0.10;;;;;;;;;;4900518;29;20396;-92
2021/12/23 03:03:43;;;;;;;0.10;0.10;;;;;;;;;;4900464;29;20072;-90
2021/12/23 03:06:09;;;;;;;0.10;0.10;;;;;;;;;;4900529;29;20131;-92
2021/12/23 03:08:40;;;;;;;0.10;0.10;;;;;;;;;;4900621;29;20048;-91
2021/12/23 03:11:06;;;;;;;0.00;0.00;;;;;;;;;;4900731;29;20518;-91
2021/12/23 03:13:32;;;;;;;0.10;0.10;;;;;;;;;;4915912;29;20048;-92
2021/12/23 03:15:58;;;;;;;0.40;0.40;;;;;;;;;;4900785;29;20191;-93
2021/12/23 03:18:24;;;;;;;0.30;0.30;;;;;;;;;;4916839;29;20091;-94
2021/12/23 03:20:50;;;;;;;0.10;0.10;;;;;;;;;;4900640;29;20080;-92
2021/12/23 03:23:16;;;;;;;0.10;0.10;;;;;;;;;;4900283;29;20102;-92
2021/12/23 03:25:42;;;;;;;0.10;0.10;;;;;;;;;;4900327;29;20411;-91
2021/12/23 03:28:08;;;;;;;0.10;0.10;;;;;;;;;;4899796;29;20044;-90
2021/12/23 03:30:34;;;;;;;0.15;0.15;;;;;;;;;;4900189;29;20040;-91
2021/12/23 03:33:00;;;;;;;0.10;0.10;;;;;;;;;;4900513;29;20048;-92
2021/12/23 03:35:26;;;;;;;0.10;0.10;;;;;;;;;;4900029;29;20044;-90
2021/12/23 03:37:53;;;;;;;0.10;0.10;;;;;;;;;;4899702;29;20047;-90
2021/12/23 03:40:19;;;;;;;0.10;0.10;;;;;;;;;;4900196;29;20047;-92
2021/12/23 03:42:45;;;;;;;0.57;0.57;;;;;;;;;;4899586;29;20088;-93
2021/12/23 03:45:11;;;;;;;0.10;0.10;;;;;;;;;;4900217;29;20103;-91
2021/12/23 03:47:37;;;;;;;0.00;0.00;;;;;;;;;;4915762;29;20040;-93
2021/12/23 03:50:03;;;;;;;0.10;0.10;;;;;;;;;;4899758;29;20050;-93
2021/12/23 03:52:29;;;;;;;0.10;0.10;;;;;;;;;;4899384;29;20059;-93
2021/12/23 03:54:56;;;;;;;0.10;0.10;;;;;;;;;;4899691;29;20567;-92
2021/12/23 03:57:22;;;;;;;0.10;0.10;;;;;;;;;;4899768;29;20134;-92
2021/12/23 03:59:48;;;;;;;0.10;0.10;;;;;;;;;;4899734;29;20094;-92
2021/12/23 04:02:14;;;;;;;0.10;0.10;;;;;;;;;;4899410;29;20054;-93
2021/12/23 04:04:40;;;;;;;0.10;0.10;;;;;;;;;;4899806;29;20485;-93
2021/12/23 04:07:06;;;;;;;0.30;0.30;;;;;;;;;;4899578;29;20052;-93
2021/12/23 04:09:32;;;;;;;0.10;0.10;;;;;;;;;;4899682;29;20044;-92
2021/12/23 04:11:58;;;;;;;0.10;0.10;;;;;;;;;;4899492;29;20047;-90
2021/12/23 04:14:24;;;;;;;0.28;0.28;;;;;;;;;;4914919;29;20044;-92
2021/12/23 04:16:50;;;;;;;0.10;0.10;;;;;;;;;;4899205;29;20543;-90
2021/12/23 04:19:16;;;;;;;0.10;0.10;;;;;;;;;;4915284;29;20310;-91
2021/12/23 04:21:42;;;;;;;0.10;0.10;;;;;;;;;;4914515;29;20473;-91
2021/12/23 04:24:08;;;;;;;0.00;0.00;;;;;;;;;;4915483;29;20056;-91
2021/12/23 04:26:35;;;;;;;0.10;0.10;;;;;;;;;;4901921;29;20044;-90
2021/12/23 04:29:01;;;;;;;0.55;0.20;;;;;;;;;;4919036;29;20055;-91
2021/12/23 04:31:27;;;;;;;0.20;0.20;;;;;;;;;;4919199;29;20138;-91
2021/12/23 04:33:53;;;;;;;0.47;0.30;;;;;;;;;;4903452;29;20079;-91
2021/12/23 04:36:19;;;;;;;0.10;0.10;;;;;;;;;;4903366;29;20131;-91
2021/12/23 04:38:45;;;;;;;0.10;0.10;;;;;;;;;;4903338;29;20452;-91
2021/12/23 04:41:11;;;;;;;0.10;0.10;;;;;;;;;;4903211;29;20058;-92
2021/12/23 04:43:38;;;;;;;0.10;0.10;;;;;;;;;;4903260;29;20043;-92
2021/12/23 04:46:04;;;;;;;0.10;0.10;;;;;;;;;;4918977;29;20040;-92
2021/12/23 04:48:30;;;;;;;0.10;0.10;;;;;;;;;;4903449;29;20036;-93
2021/12/23 04:50:56;;;;;;;0.10;0.10;;;;;;;;;;4903093;29;20139;-92
2021/12/23 04:53:22;;;;;;;0.10;0.10;;;;;;;;;;4903364;29;20051;-93
2021/12/23 04:55:48;;;;;;;0.10;0.10;;;;;;;;;;4903748;29;20043;-92
2021/12/23 04:58:14;;;;;;;0.00;0.00;;;;;;;;;;4902928;29;20051;-93
2021/12/23 05:00:42;;;;;;;0.10;0.10;;;;;;;;;;4903130;29;20051;-93
2021/12/23 05:03:08;;;;;;;0.10;0.10;;;;;;;;;;4903400;29;20099;-93
2021/12/23 05:05:34;;;;;;;0.10;0.10;;;;;;;;;;4902790;29;20047;-93
2021/12/23 05:08:00;;;;;;;0.13;0.13;;;;;;;;;;4918685;29;20040;-92
2021/12/23 05:10:26;;;;;;;0.10;0.10;;;;;;;;;;4919049;29;20040;-93
2021/12/23 05:12:52;;;;;;;0.20;0.20;;;;;;;;;;4918476;29;20048;-95
2021/12/23 05:15:19;;;;;;;0.10;0.10;;;;;;;;;;4902961;29;20044;-94
2021/12/23 05:17:45;;;;;;;0.10;0.10;;;;;;;;;;4903146;29;20079;-94
2021/12/23 05:20:11;;;;;;;0.10;0.10;;;;;;;;;;4918364;29;20380;-94
2021/12/23 05:22:37;;;;;;;0.10;0.10;;;;;;;;;;4902689;29;20354;-94
2021/12/23 05:25:04;;;;;;;0.47;0.20;;;;;;;;;;4902375;29;20481;-94
2021/12/23 05:27:30;;;;;;;0.10;0.10;;;;;;;;;;4902789;29;20040;-93
2021/12/23 05:29:56;;;;;;;0.10;0.10;;;;;;;;;;4902925;29;20051;-92
2021/12/23 05:32:22;;;;;;;0.10;0.10;;;;;;;;;;4902185;29;20044;-93
2021/12/23 05:34:48;;;;;;;0.10;0.10;;;;;;;;;;4902295;29;20052;-94
2021/12/23 05:37:16;;;;;;;0.10;0.10;;;;;;;;;;4902118;29;20139;-93
2021/12/23 05:39:42;;;;;;;0.10;0.10;;;;;;;;;;4917893;29;20187;-94
2021/12/23 05:42:08;;;;;;;0.10;0.10;;;;;;;;;;4902305;29;20388;-95
2021/12/23 05:44:34;;;;;;;0.10;0.10;;;;;;;;;;4902055;29;20036;-93
2021/12/23 05:47:00;;;;;;;0.10;0.10;;;;;;;;;;4901805;29;20190;-94
2021/12/23 05:49:26;;;;;;;0.10;0.10;;;;;;;;;;4902227;29;20448;-94
2021/12/23 05:51:52;;;;;;;0.10;0.10;;;;;;;;;;4902174;29;20110;-93
2021/12/23 05:54:18;;;;;;;0.10;0.10;;;;;;;;;;4901928;29;20130;-94
2021/12/23 05:56:44;;;;;;;0.20;0.20;;;;;;;;;;4901948;29;20044;-94
2021/12/23 05:59:10;;;;;;;0.10;0.10;;;;;;;;;;4902115;29;20043;-94
2021/12/23 06:01:36;;;;;;;0.10;0.10;;;;;;;;;;4901709;29;20047;-94
2021/12/23 06:04:02;;;;;;;0.10;0.10;;;;;;;;;;4901915;29;20499;-94
2021/12/23 06:06:28;;;;;;;0.10;0.10;;;;;;;;;;4901963;29;20040;-92
2021/12/23 06:08:54;;;;;;;0.10;0.10;;;;;;;;;;4902326;29;20043;-94
2021/12/23 06:11:20;;;;;;;0.10;0.10;;;;;;;;;;4902103;29;20047;-94
2021/12/23 06:13:46;;;;;;;0.10;0.10;;;;;;;;;;4902085;29;20047;-93
2021/12/23 06:16:12;;;;;;;0.10;0.10;;;;;;;;;;4918036;29;20047;-93
2021/12/23 06:18:38;;;;;;;0.10;0.10;;;;;;;;;;4901881;29;20040;-93
2021/12/23 06:21:04;;;;;;;0.10;0.10;;;;;;;;;;4901861;29;20066;-92
2021/12/23 06:23:31;;;;;;;0.10;0.10;;;;;;;;;;4902028;29;20082;-93
2021/12/23 06:25:57;;;;;;;0.10;0.10;;;;;;;;;;4901964;29;20134;-94
2021/12/23 06:28:23;;;;;;;0.10;0.10;;;;;;;;;;4901779;29;20040;-93
2021/12/23 06:30:49;;;;;;;0.15;0.15;;;;;;;;;;4901330;29;20449;-92
2021/12/23 06:33:15;;;;;;;0.20;0.20;;;;;;;;;;4901226;29;20044;-94
2021/12/23 06:35:41;;;;;;;0.10;0.10;;;;;;;;;;4901185;29;20040;-93
2021/12/23 06:38:08;;;;;;;0.20;0.20;;;;;;;;;;4901542;29;20516;-94
2021/12/23 06:40:34;;;;;;;0.10;0.10;;;;;;;;;;4901583;29;20515;-93
2021/12/23 06:43:00;;;;;;;0.10;0.10;;;;;;;;;;4901343;29;20491;-93
2021/12/23 06:45:25;;;;;;;0.10;0.10;;;;;;;;;;4900850;29;20071;-92
2021/12/23 06:47:51;;;;;;;0.20;0.20;;;;;;;;;;4915658;29;20043;-92
2021/12/23 06:50:20;;;;;;;0.10;0.10;;;;;;;;;;4916758;29;20408;-92
2021/12/23 06:52:46;;;;;;;0.20;0.20;;;;;;;;;;4900943;29;20044;-92
2021/12/23 06:55:12;;;;;;;0.10;0.10;;;;;;;;;;4901039;29;20066;-92
2021/12/23 06:57:40;;;;;;;0.52;0.52;;;;;;;;;;4901097;29;20484;-92
2021/12/23 07:00:07;;;;;;;0.10;0.10;;;;;;;;;;4901358;29;20048;-92
2021/12/23 07:02:37;;;;;;;0.20;0.20;;;;;;;;;;4917762;29;20146;-92
2021/12/23 07:05:03;;;;;;;0.10;0.10;;;;;;;;;;4916978;29;20044;-92
2021/12/23 07:07:40;;;;;;;0.10;0.10;;;;;;;;;;4900989;29;20416;-92
2021/12/23 07:10:06;;;;;;;0.10;0.10;;;;;;;;;;4902327;29;20044;-92
2021/12/23 07:12:32;;;;;;;0.10;0.10;;;;;;;;;;4916431;29;20083;-93
2021/12/23 07:14:58;;;;;;;0.22;0.22;;;;;;;;;;4902964;29;20043;-89
2021/12/23 07:17:23;;;;;;;0.32;0.32;;;;;;;;;;4900423;29;20044;-91
2021/12/23 07:19:49;;;;;;;0.10;0.10;;;;;;;;;;4899947;29;20044;-90
2021/12/23 07:22:15;;;;;;;0.10;0.10;;;;;;;;;;4899517;29;20111;-90
2021/12/23 07:24:41;;;;;;;0.10;0.10;;;;;;;;;;4915464;29;20052;-90
2021/12/23 07:27:08;;;;;;;0.10;0.10;;;;;;;;;;4899812;29;20040;-90
2021/12/23 07:29:34;;;;;;;0.10;0.10;;;;;;;;;;4900300;29;20052;-90
2021/12/23 07:32:02;;;;;;;0.10;0.10;;;;;;;;;;4899913;29;20079;-90
2021/12/23 07:34:28;;;;;;;0.10;0.10;;;;;;;;;;4900413;29;20062;-90
2021/12/23 07:36:54;;;;;;;0.10;0.10;;;;;;;;;;4899942;29;20040;-90
2021/12/23 07:39:21;;;;;;;0.08;0.08;;;;;;;;;;4915721;29;20095;-88
2021/12/23 07:41:47;;;;;;;0.10;0.10;;;;;;;;;;4914709;29;20079;-87
2021/12/23 07:44:20;;;;;;;0.10;0.10;;;;;;;;;;4915204;29;20051;-90
2021/12/23 07:46:46;;;;;;;0.10;0.10;;;;;;;;;;4916020;29;20044;-91
2021/12/23 07:49:12;;;;;;;0.43;0.43;;;;;;;;;;4899535;29;20037;-91
2021/12/23 07:51:38;;;;;;;0.10;0.10;;;;;;;;;;4915569;29;20130;-90
2021/12/23 07:54:04;;;;;;;0.10;0.10;;;;;;;;;;4899507;29;20048;-90
2021/12/23 07:56:29;;;;;;;0.10;0.10;;;;;;;;;;4915006;29;20051;-90
2021/12/23 07:58:55;;;;;;;0.10;0.10;;;;;;;;;;4899400;29;20043;-89
2021/12/23 08:01:21;;;;;;;0.10;0.10;;;;;;;;;;4915653;29;20115;-91
2021/12/23 08:03:47;;;;;;;0.35;0.35;;;;;;;;;;4899597;29;20126;-91
2021/12/23 08:06:13;;;;;;;0.10;0.10;;;;;;;;;;4899672;29;20075;-92
2021/12/23 08:08:39;;;;;;;1.98;0.32;;;;;;;;;;4914934;29;20457;-91
2021/12/23 08:11:08;;;;;;;0.47;0.20;;;;;;;;;;4899343;29;20040;-90
2021/12/23 08:13:34;;;;;;;0.13;0.13;;;;;;;;;;4899914;29;20047;-91
2021/12/23 08:16:01;;;;;;;0.10;0.10;;;;;;;;;;4914929;29;20040;-91
2021/12/23 08:18:30;;;;;;;0.32;0.32;;;;;;;;;;4915498;29;20058;-91
2021/12/23 08:20:56;;;;;;;0.10;0.10;;;;;;;;;;4899235;29;20036;-92
2021/12/23 08:23:22;;;;;;;0.10;0.10;;;;;;;;;;4899007;29;20111;-91
2021/12/23 08:25:48;;;;;;;0.10;0.10;;;;;;;;;;4899869;29;20476;-91
2021/12/23 08:28:14;;;;;;;0.10;0.10;;;;;;;;;;4899357;29;20036;-91
2021/12/23 08:30:41;;;;;;;0.10;0.10;;;;;;;;;;4915477;29;20050;-91
2021/12/23 08:33:07;;;;;;;0.10;0.10;;;;;;;;;;4901027;29;20443;-90
2021/12/23 08:35:33;;;;;;;0.10;0.10;;;;;;;;;;4917538;29;20095;-91
2021/12/23 08:37:59;;;;;;;0.10;0.10;;;;;;;;;;4901737;29;20439;-90
2021/12/23 08:40:26;;;;;;;0.28;0.28;;;;;;;;;;4902036;29;20114;-91
2021/12/23 08:42:52;;;;;;;0.10;0.10;;;;;;;;;;4901662;29;20043;-89
2021/12/23 08:45:18;;;;;;;0.10;0.10;;;;;;;;;;4901752;29;20044;-88
2021/12/23 08:47:45;;;;;;;0.10;0.10;;;;;;;;;;4917376;29;20039;-88
2021/12/23 08:50:11;;;;;;;0.10;0.10;;;;;;;;;;4917266;29;20067;-88
2021/12/23 08:52:37;;;;;;;0.20;0.20;;;;;;;;;;4917219;29;20526;-89
2021/12/23 08:55:04;;;;;;;0.20;0.20;;;;;;;;;;4917586;29;20048;-88
2021/12/23 08:57:30;;;;;;;0.32;0.32;;;;;;;;;;4917351;29;20095;-88
2021/12/23 08:59:56;;;;;;;0.10;0.10;;;;;;;;;;4917388;29;20380;-89
2021/12/23 09:02:21;;;;;;;0.10;0.10;;;;;;;;;;4917120;29;20046;-88
2021/12/23 09:04:47;;;;;;;0.17;0.17;;;;;;;;;;4917248;29;20499;-88
2021/12/23 09:07:13;;;;;;;0.10;0.10;;;;;;;;;;4932993;29;20039;-88
2021/12/23 09:09:39;;;;;;;0.22;0.22;;;;;;;;;;4917272;29;20099;-89
2021/12/23 09:12:07;;;;;;;0.10;0.10;;;;;;;;;;4919126;29;20142;-89
2021/12/23 09:14:33;;;;;;;0.10;0.10;;;;;;;;;;4905206;29;20078;-88
2021/12/23 09:16:59;;;;;;;0.10;0.10;;;;;;;;;;4905456;29;20052;-88
2021/12/23 09:19:25;;;;;;;0.10;0.10;;;;;;;;;;4905210;29;20134;-88
2021/12/23 09:21:51;;;;;;;0.22;0.22;;;;;;;;;;4920296;29;20487;-88
2021/12/23 09:24:19;;;;;;;0.10;0.10;;;;;;;;;;4904927;29;20058;-88
2021/12/23 09:26:52;;;;;;;0.10;0.10;;;;;;;;;;4905005;29;20123;-88
2021/12/23 09:32:41;;;;;;;0.10;0.10;;;;;;;;;;4905792;29;20040;-88
2021/12/23 09:34:49;;;;;;;0.10;0.10;;;;;;;;;;4904344;29;20051;-91
2021/12/23 09:37:15;;;;;;;0.10;0.10;;;;;;;;;;4901877;29;20047;-92
2021/12/23 09:39:41;;;;;;;0.10;0.10;;;;;;;;;;4902473;29;20139;-92
2021/12/23 09:42:07;;;;;;;0.20;0.20;;;;;;;;;;4901489;29;20051;-92
2021/12/23 09:44:33;;;;;;;0.10;0.10;;;;;;;;;;4901697;29;20097;-88
2021/12/23 09:47:02;;;;;;;0.10;0.10;;;;;;;;;;4901355;29;20051;-89
2021/12/23 09:49:29;;;;;;;0.10;0.10;;;;;;;;;;4917436;29;20044;-89
2021/12/23 09:51:55;;;;;;;0.10;0.10;;;;;;;;;;4916774;29;20051;-87
2021/12/23 09:54:21;;;;;;;0.10;0.10;;;;;;;;;;4915648;29;20055;-86
2021/12/23 09:56:47;;;;;;;0.30;0.30;;;;;;;;;;4914249;29;20051;-87
2021/12/23 09:59:13;;;;;;;0.20;0.15;;;;;;;;;;4935653;29;20040;-89
2021/12/23 10:01:39;;;;;;;0.10;0.10;;;;;;;;;;4904275;29;20047;-90
2021/12/23 10:04:05;;;;;;;0.10;0.10;;;;;;;;;;4919959;29;20040;-88
2021/12/23 10:06:32;;;;;;;0.30;0.30;;;;;;;;;;4919596;29;20046;-89
2021/12/23 10:08:58;;;;;;;0.47;0.47;;;;;;;;;;4904355;29;20046;-88
2021/12/23 10:12:14;;;;;;;0.10;0.10;;;;;;;;;;4919809;29;20047;-88
2021/12/23 10:31:24;;;;;;;0.10;0.10;;;;;;;;;;4935394;29;20043;-90
2021/12/23 10:33:42;;;;;;;0.10;0.10;;;;;;;;;;4921649;29;20135;-90
2021/12/23 10:38:37;;;;;;;0.10;0.10;;;;;;;;;;4919558;29;20056;-88
2021/12/23 10:41:05;;;;;;;0.10;0.10;;;;;;;;;;4934890;29;20349;-88
2021/12/23 10:43:35;;;;;;;0.28;0.28;;;;;;;;;;4918918;29;20035;-89
2021/12/23 10:46:02;;;;;;;0.10;0.10;;;;;;;;;;4919104;29;20489;-89
2021/12/23 10:48:31;;;;;;;0.10;0.10;;;;;;;;;;4918909;29;20396;-88
2021/12/23 10:51:02;;;;;;;0.10;0.10;;;;;;;;;;4903587;29;20102;-89
2021/12/23 10:53:45;;;;;;;0.10;0.10;;;;;;;;;;4919553;29;20550;-89
2021/12/23 10:59:02;;;;;;;0.10;0.10;;;;;;;;;;4934602;29;20043;-88
2021/12/23 11:01:28;;;;;;;0.20;0.20;;;;;;;;;;4918672;29;20455;-88
2021/12/23 11:03:59;;;;;;;0.10;0.10;;;;;;;;;;4919713;29;20036;-90
2021/12/23 11:06:32;;;;;;;0.10;0.10;;;;;;;;;;4909663;29;20159;-88
2021/12/23 11:09:20;;;;;;;0.10;0.10;;;;;;;;;;4941713;29;20039;-88
2021/12/23 11:42:00;;;;;;;0.10;0.10;;;;;;;;;;4918682;29;20051;-88
2021/12/23 11:44:30;;;;;;;0.10;0.10;;;;;;;;;;4919251;29;20119;-89
2021/12/23 11:46:57;;;;;;;0.22;0.22;;;;;;;;;;4918837;29;20043;-88
2021/12/23 11:49:23;;;;;;;0.10;0.10;;;;;;;;;;4902340;29;20110;-88
2021/12/23 11:54:17;;;;;;;0.10;0.10;;;;;;;;;;4918270;29;20079;-88
2021/12/23 11:57:01;;;;;;;0.10;0.10;;;;;;;;;;4917796;29;20465;-88
2021/12/23 11:59:27;;;;;;;0.10;0.10;;;;;;;;;;4902509;29;20146;-88
2021/12/23 12:01:53;;;;;;;0.65;0.65;;;;;;;;;;4917857;29;20054;-92
2021/12/23 12:04:35;;;;;;;0.10;0.10;;;;;;;;;;4903040;29;20466;-93
2021/12/23 12:07:01;;;;;;;0.10;0.10;;;;;;;;;;4903344;29;20078;-94
2021/12/23 12:09:31;;;;;;;0.38;0.30;;;;;;;;;;4902806;29;20050;-92
2021/12/23 12:11:57;;;;;;;0.10;0.10;;;;;;;;;;4902462;29;20106;-92
2021/12/23 12:14:39;;;;;;;0.20;0.20;;;;;;;;;;4918526;29;20047;-94
2021/12/23 12:17:24;;;;;;;0.10;0.10;;;;;;;;;;4921779;29;20510;-92
2021/12/23 12:20:10;;;;;;;0.32;0.20;;;;;;;;;;4918567;29;20043;-93
2021/12/23 12:22:57;;;;;;;0.20;0.20;;;;;;;;;;4917640;29;20056;-94
2021/12/23 12:25:23;;;;;;;0.43;0.43;;;;;;;;;;4902628;29;20091;-93
2021/12/23 12:27:54;;;;;;;0.10;0.10;;;;;;;;;;4918224;29;20114;-93
2021/12/23 12:30:21;;;;;;;0.10;0.10;;;;;;;;;;4902893;29;20391;-92
2021/12/23 12:32:47;;;;;;;0.10;0.10;;;;;;;;;;4902503;29;20517;-92
2021/12/23 12:35:17;;;;;;;0.10;0.10;;;;;;;;;;4902216;29;20051;-94
2021/12/23 12:37:43;;;;;;;0.10;0.10;;;;;;;;;;4902360;29;20075;-95
2021/12/23 12:40:11;;;;;;;1.02;0.20;;;;;;;;;;4902628;29;20044;-94
2021/12/23 12:42:42;;;;;;;0.10;0.10;;;;;;;;;;4917234;29;20400;-94
2021/12/23 12:45:14;;;;;;;0.10;0.10;;;;;;;;;;4902944;29;20039;-94
2021/12/23 12:47:47;;;;;;;0.10;0.10;;;;;;;;;;4906502;29;20052;-93
2021/12/23 12:50:17;;;;;;;0.10;0.10;;;;;;;;;;4907037;29;20118;-93
2021/12/23 12:52:44;;;;;;;0.13;0.13;;;;;;;;;;4921741;29;20043;-94
2021/12/23 12:55:12;;;;;;;0.10;0.10;;;;;;;;;;4906481;29;20047;-93
2021/12/23 12:57:54;;;;;;;0.10;0.10;;;;;;;;;;4906014;29;20039;-93
2021/12/23 13:00:20;;;;;;;0.10;0.10;;;;;;;;;;4906362;29;20199;-93
2021/12/23 13:03:01;;;;;;;0.32;0.32;;;;;;;;;;4921649;29;20055;-93
2021/12/23 13:05:28;;;;;;;0.10;0.10;;;;;;;;;;4906342;29;20423;-93
2021/12/23 13:07:55;;;;;;;0.20;0.20;;;;;;;;;;4906061;29;20582;-94
2021/12/23 13:10:23;;;;;;;0.10;0.10;;;;;;;;;;4937785;29;20046;-95
2021/12/23 13:12:50;;;;;;;0.10;0.10;;;;;;;;;;4905836;29;20066;-92
2021/12/23 13:15:29;;;;;;;0.10;0.10;;;;;;;;;;4921430;29;20043;-94
2021/12/23 13:18:01;;;;;;;0.10;0.10;;;;;;;;;;4905741;29;20054;-94
2021/12/23 13:20:32;;;;;;;0.10;0.10;;;;;;;;;;4905545;29;20087;-93
2021/12/23 13:23:02;;;;;;;0.10;0.10;;;;;;;;;;4905652;29;20054;-94
2021/12/23 13:25:28;;;;;;;0.10;0.10;;;;;;;;;;4905723;29;20044;-94
2021/12/23 13:27:54;;;;;;;0.15;0.15;;;;;;;;;;4905894;29;20452;-94
2021/12/23 13:30:20;;;;;;;0.10;0.10;;;;;;;;;;4905858;29;20082;-95
2021/12/23 13:33:00;;;;;;;0.10;0.10;;;;;;;;;;4905566;29;20039;-94
2021/12/23 13:35:26;;;;;;;0.10;0.10;;;;;;;;;;4905752;29;20047;-94
2021/12/23 13:37:52;;;;;;;0.08;0.08;;;;;;;;;;4906432;29;20047;-95
2021/12/23 13:40:30;;;;;;;0.10;0.10;;;;;;;;;;4907376;29;20480;-95
2021/12/23 13:42:56;;;;;;;0.10;0.10;;;;;;;;;;4906119;29;20071;-92
2021/12/23 13:45:22;;;;;;;0.10;0.10;;;;;;;;;;4906582;29;20050;-95
2021/12/23 13:47:50;;;;;;;0.10;0.10;;;;;;;;;;4905712;29;20042;-96
2021/12/23 13:50:18;;;;;;;0.10;0.10;;;;;;;;;;4905590;29;20039;-94
2021/12/23 13:52:46;;;;;;;0.00;0.00;;;;;;;;;;4904521;29;20139;-94
2021/12/23 13:55:16;;;;;;;0.10;0.10;;;;;;;;;;4905309;29;20050;-94
2021/12/23 13:57:46;;;;;;;0.05;0.05;;;;;;;;;;4921002;29;20040;-94
2021/12/23 14:00:34;;;;;;;0.28;0.28;;;;;;;;;;4906285;29;20039;-96
2021/12/23 14:03:15;;;;;;;0.10;0.10;;;;;;;;;;4920755;29;20155;-95
2021/12/23 14:05:51;;;;;;;0.20;0.20;;;;;;;;;;4938036;29;20502;-96
2021/12/23 14:08:17;;;;;;;;;;;;;;;;;;4906528;29;20098;-96
2021/12/23 14:10:43;;;;;;;0.10;0.10;;;;;;;;;;4920566;29;19919;-94
2021/12/23 14:13:11;;;;;;;0.10;0.10;;;;;;;;;;4904741;29;20079;-94
2021/12/23 14:15:36;;;;;;;0.10;0.10;;;;;;;;;;4904645;29;20128;-93
2021/12/23 14:18:07;;;;;;;0.10;0.10;;;;;;;;;;4920098;29;20051;-93
2021/12/23 14:23:22;;;;;;;0.10;0.10;;;;;;;;;;4935545;29;20056;-93
2021/12/23 14:25:52;;;;;;;0.10;0.10;;;;;;;;;;4904883;29;20044;-93
2021/12/23 14:28:19;;;;;;;0.10;0.10;;;;;;;;;;4904039;29;20099;-94
2021/12/23 14:30:47;;;;;;;0.10;0.10;;;;;;;;;;4904329;29;20551;-94
2021/12/23 14:33:15;;;;;;;0.10;0.10;;;;;;;;;;4903582;29;20086;-93
2021/12/23 14:35:42;;;;;;;0.10;0.10;;;;;;;;;;4904041;29;20039;-94
2021/12/23 14:38:10;;;;;;;0.00;0.00;;;;;;;;;;4905373;29;20046;-96
2021/12/23 14:40:37;;;;;;;0.10;0.10;;;;;;;;;;4904914;29;20071;-93
2021/12/23 14:43:04;;;;;;;0.10;0.10;;;;;;;;;;4903968;29;20107;-94
2021/12/23 14:45:30;;;;;;;0.10;0.10;;;;;;;;;;4919660;29;20035;-94
2021/12/23 14:48:19;;;;;;;0.38;0.38;;;;;;;;;;4904318;29;20090;-96
2021/12/23 14:50:51;;;;;;;0.10;0.10;;;;;;;;;;4922090;29;20044;-93
2021/12/23 14:53:18;;;;;;;0.10;0.10;;;;;;;;;;4904807;29;20059;-94
2021/12/23 14:55:52;;;;;;;0.10;0.10;;;;;;;;;;4904110;29;20287;-96
2021/12/23 14:58:18;;;;;;;0.10;0.10;;;;;;;;;;4904322;29;20150;-94
2021/12/23 15:00:46;;;;;;;0.30;0.30;;;;;;;;;;4904285;29;20044;-96
2021/12/23 15:03:26;;;;;;;0.10;0.10;;;;;;;;;;4903955;29;20051;-94
2021/12/23 15:05:53;;;;;;;0.10;0.10;;;;;;;;;;4919933;29;20043;-95
2021/12/23 15:08:20;;;;;;;0.10;0.10;;;;;;;;;;4903725;29;20043;-95
2021/12/23 15:10:47;;;;;;;0.10;0.10;;;;;;;;;;4918367;29;20131;-89
2021/12/23 15:13:19;;;;;;;0.10;0.10;;;;;;;;;;4902924;29;20126;-95
2021/12/23 15:15:45;;;;;;;0.10;0.10;;;;;;;;;;4919699;29;20040;-94
2021/12/23 15:18:29;;;;;;;0.10;0.10;;;;;;;;;;4918096;29;20039;-93
2021/12/23 15:20:56;;;;;;;0.10;0.10;;;;;;;;;;4924468;29;20376;-93
2021/12/23 15:23:42;;;;;;;0.10;0.10;;;;;;;;;;4924591;28;20116;-92
2021/12/23 15:26:21;;;;;;;0.30;0.30;;;;;;;;;;4925500;29;20051;-95
2021/12/23 15:29:11;;;;;;;0.13;0.13;;;;;;;;;;4903198;29;20040;-93
2021/12/23 15:31:37;;;;;;;0.08;0.08;;;;;;;;;;4913500;29;20385;-94
2021/12/23 15:34:07;;;;;;;0.10;0.10;;;;;;;;;;4903268;29;20476;-94
2021/12/23 15:36:34;;;;;;;0.10;0.10;;;;;;;;;;4904254;29;20392;-94
2021/12/23 15:39:00;;;;;;;0.00;0.00;;;;;;;;;;4903485;29;20340;-95
2021/12/23 15:41:26;;;;;;;0.10;0.10;;;;;;;;;;4903112;29;20036;-94
2021/12/23 15:43:52;;;;;;;0.10;0.10;;;;;;;;;;4919702;29;20053;-94
2021/12/23 15:46:18;;;;;;;0.10;0.10;;;;;;;;;;4903153;29;20035;-92
2021/12/23 15:48:44;;;;;;;0.10;0.10;;;;;;;;;;4902589;29;20039;-90
2021/12/23 15:51:11;;;;;;;0.10;0.10;;;;;;;;;;4918088;29;20047;-92
2021/12/23 15:53:37;;;;;;;0.30;0.30;;;;;;;;;;4918419;29;20051;-93